createdAt,value
2022-10-11T00:01:41.494Z,23.20
2022-10-11T00:04:14.158Z,22.90
2022-10-11T00:06:47.661Z,24.98
2022-10-11T00:09:20.313Z,23.50
2022-10-11T00:11:56.789Z,22.70
2022-10-11T00:14:29.250Z,23.67
2022-10-11T00:17:01.791Z,24.35
2022-10-11T00:19:34.880Z,24.08
2022-10-11T00:22:07.408Z,24.55
2022-10-11T00:24:39.972Z,25.08
2022-10-11T00:27:12.567Z,24.90
2022-10-11T00:29:45.361Z,25.30
2022-10-11T00:32:18.506Z,25.15
2022-10-11T00:34:51.149Z,26.40
2022-10-11T00:37:23.777Z,25.88
2022-10-11T00:39:56.629Z,25.83
2022-10-11T00:42:29.213Z,26.45
2022-10-11T00:45:32.313Z,26.65
2022-10-11T00:48:15.182Z,25.45
2022-10-11T00:50:47.973Z,25.80
2022-10-11T00:53:22.033Z,26.00
2022-10-11T00:56:05.470Z,22.90
2022-10-11T00:58:39.368Z,25.98
2022-10-11T01:01:12.229Z,25.23
2022-10-11T01:03:45.253Z,25.77
2022-10-11T01:06:17.773Z,24.45
2022-10-11T01:08:52.295Z,24.98
2022-10-11T01:11:28.263Z,23.67
2022-10-11T01:14:02.428Z,26.45
2022-10-11T01:16:44.614Z,27.50
2022-10-11T01:19:52.221Z,25.90
2022-10-11T01:22:56.038Z,26.48
2022-10-11T01:25:44.665Z,26.35
2022-10-11T01:28:18.073Z,26.05
2022-10-11T01:30:52.314Z,26.02
2022-10-11T01:33:38.758Z,25.98
2022-10-11T01:36:28.151Z,25.10
2022-10-11T01:39:20.801Z,26.88
2022-10-11T01:41:57.806Z,26.42
2022-10-11T01:44:32.373Z,26.90
2022-10-11T01:47:05.179Z,26.73
2022-10-11T01:49:37.642Z,26.45
2022-10-11T01:52:12.039Z,29.38
2022-10-11T01:55:10.723Z,28.83
2022-10-11T01:58:14.767Z,28.33
2022-10-11T02:00:58.379Z,27.10
2022-10-11T02:03:53.765Z,27.30
2022-10-11T02:06:35.988Z,27.43
2022-10-11T02:09:18.886Z,27.75
2022-10-11T02:11:56.664Z,27.92
2022-10-11T02:14:33.472Z,25.02
2022-10-11T02:17:13.562Z,27.23
2022-10-11T02:19:50.782Z,25.67
2022-10-11T02:22:30.602Z,27.10
2022-10-11T02:25:09.535Z,27.15
2022-10-11T02:27:45.860Z,26.85
2022-10-11T02:30:18.917Z,26.90
2022-10-11T02:32:54.204Z,27.40
2022-10-11T02:35:30.112Z,27.42
2022-10-11T02:38:09.169Z,29.08
2022-10-11T02:40:47.149Z,27.13
2022-10-11T02:43:38.811Z,27.80
2022-10-11T02:46:12.422Z,28.70
2022-10-11T02:48:44.897Z,28.20
2022-10-11T02:51:18.778Z,27.85
2022-10-11T02:53:51.387Z,28.90
2022-10-11T02:56:23.879Z,28.67
2022-10-11T02:58:56.554Z,29.15
2022-10-11T03:01:29.163Z,29.42
2022-10-11T03:04:01.906Z,29.52
2022-10-11T03:06:34.369Z,28.92
2022-10-11T03:09:07.117Z,27.65
2022-10-11T03:11:39.634Z,29.80
2022-10-11T03:14:12.344Z,28.63
2022-10-11T03:16:44.842Z,28.35
2022-10-11T03:19:19.471Z,29.15
2022-10-11T03:21:52.476Z,30.88
2022-10-11T03:24:25.122Z,29.85
2022-10-11T03:26:58.000Z,30.75
2022-10-11T03:29:30.729Z,30.48
2022-10-11T03:32:03.603Z,31.25
2022-10-11T03:34:36.262Z,30.77
2022-10-11T03:37:08.688Z,32.30
2022-10-11T03:39:41.302Z,31.67
2022-10-11T03:42:14.606Z,31.02
2022-10-11T03:44:49.752Z,31.58
2022-10-11T03:47:22.415Z,30.30
2022-10-11T03:49:55.056Z,32.28
2022-10-11T03:52:28.006Z,30.88
2022-10-11T03:55:00.673Z,31.30
2022-10-11T03:57:33.509Z,31.02
2022-10-11T04:00:08.090Z,30.90
2022-10-11T04:02:40.677Z,30.23
2022-10-11T04:05:13.231Z,30.80
2022-10-11T04:07:45.711Z,29.80
2022-10-11T04:10:18.808Z,30.55
2022-10-11T04:12:51.397Z,30.85
2022-10-11T04:15:23.993Z,32.22
2022-10-11T04:17:56.512Z,30.50
2022-10-11T04:20:29.116Z,30.10
2022-10-11T04:23:01.779Z,30.58
2022-10-11T04:25:34.515Z,30.08
2022-10-11T04:28:09.240Z,30.77
2022-10-11T04:30:42.126Z,29.17
2022-10-11T04:33:14.997Z,29.83
2022-10-11T04:35:47.773Z,29.88
2022-10-11T04:38:20.336Z,30.52
2022-10-11T04:40:53.105Z,31.70
2022-10-11T04:43:25.818Z,30.50
2022-10-11T04:45:58.718Z,31.15
2022-10-11T04:48:31.761Z,31.83
2022-10-11T04:51:04.756Z,32.65
2022-10-11T04:53:37.509Z,32.15
2022-10-11T04:56:12.454Z,31.65
2022-10-11T04:58:48.478Z,30.67
2022-10-11T05:01:21.974Z,32.55
2022-10-11T05:03:54.395Z,31.20
2022-10-11T05:06:27.225Z,31.55
2022-10-11T05:09:00.990Z,31.60
2022-10-11T05:11:33.632Z,30.60
2022-10-11T05:14:06.254Z,32.03
2022-10-11T05:16:38.762Z,33.90
2022-10-11T05:19:11.350Z,33.97
2022-10-11T05:21:44.039Z,33.13
2022-10-11T05:24:16.551Z,32.33
2022-10-11T05:26:50.076Z,31.88
2022-10-11T05:29:22.672Z,30.77
2022-10-11T05:31:55.370Z,31.88
2022-10-11T05:34:27.897Z,33.28
2022-10-11T05:37:00.526Z,34.65
2022-10-11T05:39:33.090Z,32.08
2022-10-11T05:42:09.794Z,29.90
2022-10-11T05:44:42.754Z,30.23
2022-10-11T05:47:15.358Z,31.80
2022-10-11T05:49:47.913Z,30.90
2022-10-11T05:52:22.012Z,31.83
2022-10-11T05:54:54.482Z,32.30
2022-10-11T05:57:27.058Z,33.63
2022-10-11T05:59:59.601Z,33.58
2022-10-11T06:02:33.677Z,34.40
2022-10-11T06:05:06.603Z,35.20
2022-10-11T06:07:39.447Z,34.15
2022-10-11T06:10:12.222Z,36.65
2022-10-11T06:12:44.766Z,35.67
2022-10-11T06:15:18.369Z,35.72
2022-10-11T06:17:51.509Z,32.53
2022-10-11T06:20:24.246Z,31.83
2022-10-11T06:22:59.051Z,31.63
2022-10-11T06:25:31.568Z,31.92
2022-10-11T06:28:04.253Z,32.38
2022-10-11T06:30:38.584Z,31.88
2022-10-11T06:33:11.072Z,32.97
2022-10-11T06:35:43.459Z,31.45
2022-10-11T06:38:16.126Z,31.10
2022-10-11T06:40:48.655Z,30.10
2022-10-11T06:43:22.853Z,29.42
2022-10-11T06:46:00.232Z,30.73
2022-10-11T06:48:33.168Z,29.70
2022-10-11T06:51:06.096Z,29.52
2022-10-11T06:53:38.790Z,30.50
2022-10-11T06:56:13.292Z,30.83
2022-10-11T06:58:46.523Z,30.67
2022-10-11T07:01:21.771Z,29.83
2022-10-11T07:06:30.055Z,30.15
2022-10-11T07:09:03.099Z,29.77
2022-10-11T07:11:36.117Z,29.95
2022-10-11T07:14:10.089Z,29.92
2022-10-11T07:16:42.708Z,28.63
2022-10-11T07:19:15.646Z,29.30
2022-10-11T07:21:48.268Z,28.00
2022-10-11T07:24:20.962Z,27.80
2022-10-11T07:26:53.802Z,28.55
2022-10-11T07:29:26.449Z,27.00
2022-10-11T07:31:58.909Z,27.58
2022-10-11T07:34:31.678Z,27.40
2022-10-11T07:37:04.350Z,27.42
2022-10-11T07:39:37.302Z,28.25
2022-10-11T07:42:10.159Z,26.55
2022-10-11T07:44:42.646Z,26.35
2022-10-11T07:47:15.097Z,26.58
2022-10-11T07:49:47.598Z,26.33
2022-10-11T07:52:20.168Z,27.92
2022-10-11T07:54:52.717Z,25.15
2022-10-11T07:57:25.170Z,24.55
2022-10-11T07:59:57.699Z,23.30
2022-10-11T08:02:30.217Z,21.50
2022-10-11T08:05:02.922Z,23.35
2022-10-11T08:07:36.493Z,22.15
2022-10-11T08:10:10.056Z,24.20
2022-10-11T08:12:42.664Z,21.88
2022-10-11T08:15:15.494Z,20.80
2022-10-11T08:17:48.331Z,20.85
2022-10-11T08:20:21.126Z,18.85
2022-10-11T08:22:53.734Z,20.65
2022-10-11T08:25:26.448Z,21.15
2022-10-11T08:27:59.018Z,21.80
2022-10-11T08:30:31.902Z,19.42
2022-10-11T08:33:08.443Z,19.95
2022-10-11T08:35:41.469Z,20.95
2022-10-11T08:38:14.252Z,21.15
2022-10-11T08:40:53.929Z,22.80
2022-10-11T08:43:30.293Z,22.70
2022-10-11T08:46:05.296Z,22.77
2022-10-11T08:51:21.184Z,22.35
2022-10-11T08:54:07.178Z,23.23
2022-10-11T08:56:43.770Z,21.52
2022-10-11T08:59:29.727Z,21.95
2022-10-11T09:02:13.277Z,24.15
2022-10-11T09:04:50.582Z,21.60
2022-10-11T09:07:48.628Z,20.60
2022-10-11T09:10:41.550Z,19.05
2022-10-11T09:13:41.982Z,19.92
2022-10-11T09:16:24.082Z,17.98
2022-10-11T09:18:57.247Z,19.08
2022-10-11T09:21:38.700Z,17.45
2022-10-11T09:24:28.955Z,17.58
2022-10-11T09:27:07.360Z,17.13
2022-10-11T09:29:55.030Z,16.80
2022-10-11T09:32:34.451Z,17.08
2022-10-11T09:35:17.728Z,16.98
2022-10-11T09:38:02.119Z,15.63
2022-10-11T09:40:53.733Z,16.92
2022-10-11T09:43:26.396Z,17.48
2022-10-11T09:45:59.285Z,16.13
2022-10-11T09:48:41.854Z,18.25
2022-10-11T09:51:20.350Z,18.75
2022-10-11T09:53:55.824Z,17.70
2022-10-11T09:56:31.279Z,18.13
2022-10-11T10:02:08.873Z,18.85
2022-10-11T10:04:58.699Z,19.15
2022-10-11T10:07:33.853Z,21.52
2022-10-11T10:10:35.910Z,20.10
2022-10-11T10:13:22.394Z,21.02
2022-10-11T10:15:59.671Z,20.25
2022-10-11T10:18:37.587Z,21.25
2022-10-11T10:21:15.120Z,22.27
2022-10-11T10:23:55.694Z,20.33
2022-10-11T10:26:28.828Z,21.40
2022-10-11T10:29:05.339Z,21.50
2022-10-11T10:35:04.390Z,21.52
2022-10-11T10:37:43.545Z,21.73
2022-10-11T10:40:28.486Z,19.75
2022-10-11T10:43:01.198Z,21.50
2022-10-11T10:45:52.271Z,21.35
2022-10-11T10:49:11.656Z,21.50
2022-10-11T10:51:53.896Z,22.92
2022-10-11T10:54:37.380Z,21.60
2022-10-11T10:57:16.275Z,21.05
2022-10-11T10:59:53.151Z,21.52
2022-10-11T11:02:58.171Z,21.77
2022-10-11T11:05:37.899Z,22.20
2022-10-11T11:08:27.914Z,20.45
2022-10-11T11:11:13.571Z,20.73
2022-10-11T11:14:00.722Z,20.98
2022-10-11T11:16:45.902Z,19.00
2022-10-11T11:19:20.045Z,21.88
2022-10-11T11:21:57.106Z,22.63
2022-10-11T11:24:49.084Z,22.00
2022-10-11T11:27:53.247Z,22.23
2022-10-11T11:30:48.965Z,21.50
2022-10-11T11:33:38.217Z,20.52
2022-10-11T11:36:16.799Z,20.20
2022-10-11T11:38:54.461Z,21.60
2022-10-11T11:41:39.693Z,20.08
2022-10-11T11:44:29.349Z,20.30
2022-10-11T11:47:18.194Z,21.15
2022-10-11T11:50:00.477Z,21.15
2022-10-11T11:52:41.550Z,20.55
2022-10-11T11:55:16.182Z,19.70
2022-10-11T11:58:08.323Z,20.17
2022-10-11T12:01:04.509Z,19.58
2022-10-11T12:03:42.895Z,18.40
2022-10-11T12:06:17.617Z,19.33
2022-10-11T12:09:02.338Z,19.77
2022-10-11T12:11:39.148Z,18.77
2022-10-11T12:14:28.463Z,19.90
2022-10-11T12:17:09.052Z,21.00
2022-10-11T12:20:00.175Z,21.13
2022-10-11T12:22:34.638Z,19.58
2022-10-11T12:25:14.941Z,19.03
2022-10-11T12:27:55.296Z,18.83
2022-10-11T12:30:45.312Z,18.85
2022-10-11T12:33:21.614Z,19.95
2022-10-11T12:35:55.022Z,19.85
2022-10-11T12:38:29.050Z,19.50
2022-10-11T12:41:19.693Z,18.98
2022-10-11T12:43:53.335Z,18.52
2022-10-11T12:46:30.091Z,18.48
2022-10-11T12:49:25.866Z,19.50
2022-10-11T12:52:15.654Z,19.92
2022-10-11T12:55:03.589Z,19.45
2022-10-11T12:57:41.427Z,19.10
2022-10-11T13:00:21.818Z,20.02
2022-10-11T13:02:55.627Z,17.10
2022-10-11T13:05:44.955Z,17.92
2022-10-11T13:08:32.435Z,18.58
2022-10-11T13:11:09.681Z,20.08
2022-10-11T13:13:50.294Z,19.45
2022-10-11T13:16:26.623Z,18.90
2022-10-11T13:19:01.292Z,18.73
2022-10-11T13:21:37.473Z,20.73
2022-10-11T13:24:15.164Z,19.15
2022-10-11T13:26:52.402Z,17.42
2022-10-11T13:29:41.451Z,18.92
2022-10-11T13:32:17.304Z,18.58
2022-10-11T13:37:44.621Z,17.20
2022-10-11T13:40:20.264Z,18.67
2022-10-11T13:42:54.643Z,18.25
2022-10-11T13:45:31.079Z,17.52
2022-10-11T13:48:05.382Z,16.67
2022-10-11T13:50:39.588Z,18.65
2022-10-11T13:53:12.897Z,16.95
2022-10-11T13:55:54.493Z,17.15
2022-10-11T13:58:40.713Z,19.27
2022-10-11T14:01:25.170Z,18.85
2022-10-11T14:04:04.735Z,18.17
2022-10-11T14:06:46.670Z,18.17
2022-10-11T14:09:26.224Z,18.50
2022-10-11T14:12:29.533Z,16.52
2022-10-11T14:15:04.265Z,16.98
2022-10-11T14:17:42.052Z,16.75
2022-10-11T14:20:22.434Z,16.40
2022-10-11T14:22:55.176Z,16.58
2022-10-11T14:25:27.981Z,15.98
2022-10-11T14:28:01.403Z,16.85
2022-10-11T14:30:34.120Z,17.70
2022-10-11T14:33:07.268Z,17.92
2022-10-11T14:35:43.598Z,16.98
2022-10-11T14:38:16.274Z,17.48
2022-10-11T14:40:50.982Z,16.75
2022-10-11T14:43:23.962Z,17.42
2022-10-11T14:45:57.369Z,16.13
2022-10-11T14:48:54.497Z,16.50
2022-10-11T14:51:28.132Z,16.52
2022-10-11T14:54:00.934Z,16.90
2022-10-11T14:56:33.487Z,16.10
2022-10-11T14:59:06.495Z,15.15
2022-10-11T15:01:39.424Z,16.20
2022-10-11T15:04:13.042Z,15.82
2022-10-11T15:06:45.826Z,16.77
2022-10-11T15:09:21.239Z,15.90
2022-10-11T15:14:28.043Z,14.30
2022-10-11T15:17:00.665Z,13.90
2022-10-11T15:19:33.397Z,13.75
2022-10-11T15:22:06.293Z,13.48
2022-10-11T15:24:38.965Z,13.95
2022-10-11T15:27:11.529Z,16.10
2022-10-11T15:29:44.426Z,15.13
2022-10-11T15:32:17.315Z,16.15
2022-10-11T15:34:49.917Z,15.50
2022-10-11T15:37:22.919Z,16.38
2022-10-11T15:39:55.817Z,17.00
2022-10-11T15:42:28.794Z,16.02
2022-10-11T15:45:01.510Z,15.93
2022-10-11T15:47:34.542Z,15.32
2022-10-11T15:50:24.884Z,16.42
2022-10-11T15:52:58.221Z,17.02
2022-10-11T15:55:32.728Z,15.50
2022-10-11T15:58:05.615Z,15.97
2022-10-11T16:00:38.417Z,16.00
2022-10-11T16:03:13.531Z,16.45
2022-10-11T16:05:46.266Z,17.25
2022-10-11T16:08:19.575Z,16.50
2022-10-11T16:10:53.028Z,16.15
2022-10-11T16:13:25.905Z,16.15
2022-10-11T16:16:00.789Z,15.75
2022-10-11T16:18:35.653Z,16.20
2022-10-11T16:23:43.763Z,16.55
2022-10-11T16:26:16.823Z,16.08
2022-10-11T16:28:49.700Z,15.27
2022-10-11T16:31:22.777Z,16.80
2022-10-11T16:33:57.442Z,14.85
2022-10-11T16:36:32.400Z,15.00
2022-10-11T16:39:09.301Z,14.48
2022-10-11T16:41:44.034Z,13.93
2022-10-11T16:44:22.075Z,13.57
2022-10-11T16:46:56.046Z,14.15
2022-10-11T16:49:30.111Z,13.70
2022-10-11T16:52:04.508Z,13.15
2022-10-11T16:54:38.676Z,14.17
2022-10-11T16:57:12.528Z,13.77
2022-10-11T16:59:45.202Z,13.60
2022-10-11T17:02:20.798Z,13.45
2022-10-11T17:04:54.313Z,13.82
2022-10-11T17:07:27.413Z,14.68
2022-10-11T17:10:01.385Z,15.57
2022-10-11T17:12:37.486Z,16.52
2022-10-11T17:15:13.053Z,16.40
2022-10-11T17:17:45.909Z,17.42
2022-10-11T17:20:18.662Z,16.88
2022-10-11T17:22:51.906Z,16.08
2022-10-11T17:25:24.797Z,15.95
2022-10-11T17:27:57.772Z,16.65
2022-10-11T17:30:30.670Z,16.90
2022-10-11T17:33:03.988Z,16.20
2022-10-11T17:35:36.916Z,15.95
2022-10-11T17:38:11.064Z,15.82
2022-10-11T17:40:43.886Z,16.40
2022-10-11T17:43:17.065Z,14.93
2022-10-11T17:46:06.898Z,16.90
2022-10-11T17:48:40.624Z,16.25
2022-10-11T17:51:17.519Z,16.02
2022-10-11T17:53:51.325Z,16.42
2022-10-11T17:56:29.534Z,16.95
2022-10-11T17:59:03.623Z,16.65
2022-10-11T18:01:36.763Z,16.98
2022-10-11T18:04:16.921Z,16.63
2022-10-11T18:06:49.788Z,17.08
2022-10-11T18:09:25.155Z,17.48
2022-10-11T18:14:30.522Z,17.13
2022-10-11T18:17:03.822Z,16.27
2022-10-11T18:19:36.901Z,16.42
2022-10-11T18:22:09.617Z,17.60
2022-10-11T18:24:42.254Z,18.25
2022-10-11T18:27:14.898Z,17.38
2022-10-11T18:29:47.618Z,16.10
2022-10-11T18:32:21.177Z,15.60
2022-10-11T18:34:56.415Z,17.10
2022-10-11T18:40:03.421Z,17.15
2022-10-11T18:42:36.407Z,17.50
2022-10-11T18:45:10.780Z,18.35
2022-10-11T18:47:43.728Z,17.50
2022-10-11T18:50:17.588Z,17.27
2022-10-11T18:52:50.526Z,17.65
2022-10-11T18:55:23.849Z,17.85
2022-10-11T18:57:56.811Z,17.92
2022-10-11T19:00:44.980Z,17.05
2022-10-11T19:03:18.035Z,18.73
2022-10-11T19:05:51.307Z,17.52
2022-10-11T19:08:24.045Z,17.65
2022-10-11T19:10:57.248Z,17.90
2022-10-11T19:13:30.084Z,18.73
2022-10-11T19:16:07.484Z,18.10
2022-10-11T19:18:44.223Z,19.10
2022-10-11T19:21:18.405Z,18.23
2022-10-11T19:23:51.808Z,19.30
2022-10-11T19:26:29.453Z,18.13
2022-10-11T19:29:05.667Z,18.58
2022-10-11T19:31:44.859Z,19.02
2022-10-11T19:34:18.489Z,18.70
2022-10-11T19:36:53.963Z,17.70
2022-10-11T19:39:28.311Z,18.08
2022-10-11T19:42:01.555Z,18.30
2022-10-11T19:44:38.759Z,17.33
2022-10-11T19:47:12.792Z,17.42
2022-10-11T19:49:45.729Z,17.77
2022-10-11T19:52:18.442Z,17.40
2022-10-11T19:54:50.989Z,18.30
2022-10-11T19:57:23.660Z,17.63
2022-10-11T19:59:56.363Z,18.70
2022-10-11T20:02:29.207Z,18.40
2022-10-11T20:05:02.120Z,18.50
2022-10-11T20:07:34.864Z,19.05
2022-10-11T20:10:07.983Z,21.20
2022-10-11T20:12:45.705Z,28.05
2022-10-11T20:15:18.736Z,24.55
2022-10-11T20:17:51.952Z,27.70
2022-10-11T20:20:24.594Z,47.40
2022-10-11T20:22:57.483Z,40.35
2022-10-11T20:25:30.073Z,30.98
2022-10-11T20:28:02.932Z,24.55
2022-10-11T20:30:35.626Z,22.05
2022-10-11T20:33:08.545Z,20.10
2022-10-11T20:35:41.491Z,19.90
2022-10-11T20:38:14.371Z,20.10
2022-10-11T20:40:47.102Z,20.20
2022-10-11T20:43:19.943Z,19.67
2022-10-11T20:46:02.661Z,19.33
2022-10-11T20:48:36.399Z,19.52
2022-10-11T20:51:10.832Z,19.85
2022-10-11T20:53:43.632Z,20.40
2022-10-11T20:56:18.671Z,19.83
2022-10-11T20:58:52.921Z,20.40
2022-10-11T21:01:29.726Z,21.25
2022-10-11T21:04:03.327Z,21.80
2022-10-11T21:06:35.941Z,20.88
2022-10-11T21:09:10.283Z,20.70
2022-10-11T21:11:46.141Z,21.55
2022-10-11T21:14:18.841Z,21.13
2022-10-11T21:16:51.397Z,21.92
2022-10-11T21:19:24.312Z,21.00
2022-10-11T21:21:56.954Z,21.67
2022-10-11T21:24:29.632Z,22.67
2022-10-11T21:27:02.296Z,22.17
2022-10-11T21:29:34.925Z,19.83
2022-10-11T21:32:09.801Z,21.55
2022-10-11T21:34:46.546Z,23.98
2022-10-11T21:37:19.212Z,25.08
2022-10-11T21:39:51.895Z,24.77
2022-10-11T21:42:29.289Z,27.98
2022-10-11T21:45:02.371Z,33.38
2022-10-11T21:47:38.829Z,28.40
2022-10-11T21:50:12.249Z,24.92
2022-10-11T21:52:44.920Z,25.52
2022-10-11T21:55:17.587Z,25.70
2022-10-11T21:57:50.193Z,24.42
2022-10-11T22:00:22.982Z,23.88
2022-10-11T22:02:55.732Z,24.85
2022-10-11T22:05:28.407Z,25.52
2022-10-11T22:08:00.877Z,25.48
2022-10-11T22:10:35.499Z,24.60
2022-10-11T22:13:07.944Z,25.40
2022-10-11T22:15:40.436Z,25.20
2022-10-11T22:18:13.103Z,25.10
2022-10-11T22:20:45.643Z,25.73
2022-10-11T22:23:19.362Z,24.95
2022-10-11T22:25:52.002Z,24.95
2022-10-11T22:28:24.558Z,24.42
2022-10-11T22:30:57.428Z,25.40
2022-10-11T22:33:30.025Z,24.75
2022-10-11T22:36:05.350Z,24.58
2022-10-11T22:38:39.450Z,24.00
2022-10-11T22:41:12.213Z,23.73
2022-10-11T22:43:44.884Z,25.00
2022-10-11T22:46:17.550Z,25.33
2022-10-11T22:48:50.432Z,25.58
2022-10-11T22:51:22.991Z,25.15
2022-10-11T22:53:55.422Z,25.25
2022-10-11T22:56:28.165Z,25.13
2022-10-11T22:59:00.660Z,26.17
2022-10-11T23:01:33.519Z,26.00
2022-10-11T23:04:06.080Z,27.65
2022-10-11T23:06:38.993Z,29.85
2022-10-11T23:09:11.553Z,28.95
2022-10-11T23:11:44.129Z,27.70
2022-10-11T23:14:16.677Z,27.63
2022-10-11T23:16:52.301Z,28.15
2022-10-11T23:19:24.967Z,27.95
2022-10-11T23:21:57.495Z,28.92
2022-10-11T23:24:30.068Z,28.95
2022-10-11T23:27:02.598Z,27.80
2022-10-11T23:29:35.188Z,29.38
2022-10-11T23:32:08.490Z,28.73
2022-10-11T23:34:41.056Z,29.75
2022-10-11T23:37:13.686Z,29.58
2022-10-11T23:39:46.153Z,27.55
2022-10-11T23:42:18.663Z,28.58
2022-10-11T23:44:53.282Z,28.02
2022-10-11T23:47:25.848Z,29.65
2022-10-11T23:49:58.423Z,29.63
2022-10-11T23:52:31.041Z,29.77
2022-10-11T23:55:04.332Z,28.40
2022-10-11T23:57:37.340Z,29.83
